createdAt,value
2023-04-04T00:01:37.513Z,73.87
2023-04-04T00:04:03.513Z,75.29
2023-04-04T00:06:29.488Z,74.57
2023-04-04T00:08:55.267Z,74.09
2023-04-04T00:11:21.501Z,73.60
2023-04-04T00:13:47.545Z,72.88
2023-04-04T00:16:13.348Z,74.18
2023-04-04T00:18:39.153Z,76.08
2023-04-04T00:21:05.285Z,75.86
2023-04-04T00:23:31.232Z,74.91
2023-04-04T00:25:57.085Z,76.65
2023-04-04T00:28:22.999Z,76.92
2023-04-04T00:30:48.863Z,76.26
2023-04-04T00:33:15.034Z,76.63
2023-04-04T00:35:41.192Z,78.22
2023-04-04T00:38:07.369Z,76.06
2023-04-04T00:40:53.565Z,76.51
2023-04-04T00:43:19.512Z,76.09
2023-04-04T00:45:45.988Z,75.17
2023-04-04T00:48:12.343Z,76.01
2023-04-04T00:50:38.404Z,76.83
2023-04-04T00:53:05.373Z,75.92
2023-04-04T00:55:31.847Z,76.72
2023-04-04T00:57:58.762Z,76.50
2023-04-04T01:00:24.946Z,77.21
2023-04-04T01:02:50.917Z,77.49
2023-04-04T01:05:16.977Z,78.55
2023-04-04T01:07:43.023Z,79.20
2023-04-04T01:10:10.270Z,79.08
2023-04-04T01:12:36.213Z,78.94
2023-04-04T01:15:02.133Z,78.53
2023-04-04T01:17:28.417Z,79.37
2023-04-04T01:20:00.558Z,78.34
2023-04-04T01:22:28.859Z,78.30
2023-04-04T01:24:56.617Z,79.30
2023-04-04T01:27:22.697Z,80.00
2023-04-04T01:29:49.897Z,79.90
2023-04-04T01:32:19.560Z,79.08
2023-04-04T01:35:12.065Z,78.98
2023-04-04T01:37:55.225Z,77.74
2023-04-04T01:40:25.212Z,77.95
2023-04-04T01:42:52.053Z,77.87
2023-04-04T01:45:20.598Z,78.68
2023-04-04T01:47:46.542Z,78.75
2023-04-04T01:50:12.397Z,78.53
2023-04-04T01:52:38.262Z,79.15
2023-04-04T01:55:04.689Z,79.10
2023-04-04T01:57:30.757Z,79.07
2023-04-04T01:59:56.608Z,79.05
2023-04-04T02:02:22.427Z,79.00
2023-04-04T02:04:48.688Z,78.70
2023-04-04T02:07:14.683Z,79.06
2023-04-04T02:09:40.879Z,79.24
2023-04-04T02:12:07.671Z,79.54
2023-04-04T02:14:34.747Z,79.41
2023-04-04T02:17:00.721Z,79.20
2023-04-04T02:19:26.583Z,79.94
2023-04-04T02:21:52.410Z,79.63
2023-04-04T02:24:18.298Z,82.30
2023-04-04T02:26:44.136Z,83.30
2023-04-04T02:29:10.033Z,83.11
2023-04-04T02:31:36.003Z,83.35
2023-04-04T02:34:01.897Z,82.49
2023-04-04T02:36:28.456Z,80.00
2023-04-04T02:38:54.313Z,79.92
2023-04-04T02:41:20.355Z,79.52
2023-04-04T02:43:51.481Z,80.04
2023-04-04T02:46:21.583Z,80.35
2023-04-04T02:48:48.706Z,80.54
2023-04-04T02:51:14.633Z,80.01
2023-04-04T02:53:40.627Z,79.48
2023-04-04T02:56:06.709Z,78.98
2023-04-04T02:58:32.686Z,79.75
2023-04-04T03:00:58.544Z,80.72
2023-04-04T03:03:24.637Z,80.48
2023-04-04T03:05:50.748Z,81.03
2023-04-04T03:08:16.600Z,81.01
2023-04-04T03:10:43.919Z,81.15
2023-04-04T03:13:09.755Z,82.71
2023-04-04T03:15:35.740Z,83.94
2023-04-04T03:18:02.416Z,83.67
2023-04-04T03:20:28.286Z,82.36
2023-04-04T03:22:54.131Z,82.76
2023-04-04T03:25:20.024Z,82.43
2023-04-04T03:27:46.025Z,81.99
2023-04-04T03:30:12.560Z,83.34
2023-04-04T03:32:41.283Z,83.04
2023-04-04T03:35:07.666Z,83.07
2023-04-04T03:37:33.864Z,83.70
2023-04-04T03:40:00.461Z,83.95
2023-04-04T03:42:26.332Z,83.59
2023-04-04T03:44:55.832Z,82.76
2023-04-04T03:47:21.760Z,83.89
2023-04-04T03:49:50.719Z,83.01
2023-04-04T03:52:16.644Z,82.75
2023-04-04T03:54:42.502Z,83.83
2023-04-04T03:57:08.312Z,84.65
2023-04-04T03:59:34.496Z,84.77
2023-04-04T04:02:00.556Z,85.69
2023-04-04T04:04:26.436Z,86.76
2023-04-04T04:06:52.364Z,87.86
2023-04-04T04:09:18.410Z,86.29
2023-04-04T04:11:44.289Z,86.47
2023-04-04T04:14:10.137Z,84.28
2023-04-04T04:16:38.806Z,84.17
2023-04-04T04:19:04.656Z,84.25
2023-04-04T04:21:30.478Z,84.77
2023-04-04T04:23:56.329Z,85.47
2023-04-04T04:26:22.708Z,85.89
2023-04-04T04:28:48.655Z,85.68
2023-04-04T04:31:15.016Z,85.19
2023-04-04T04:33:41.100Z,85.95
2023-04-04T04:36:07.420Z,84.51
2023-04-04T04:38:33.278Z,84.37
2023-04-04T04:41:00.128Z,82.97
2023-04-04T04:43:26.926Z,81.58
2023-04-04T04:45:52.858Z,81.25
2023-04-04T04:48:18.639Z,81.29
2023-04-04T04:50:46.231Z,82.34
2023-04-04T04:53:15.939Z,82.44
2023-04-04T04:55:42.448Z,82.44
2023-04-04T04:58:10.033Z,84.44
2023-04-04T05:00:37.074Z,84.48
2023-04-04T05:03:06.164Z,84.83
2023-04-04T05:05:33.594Z,84.71
2023-04-04T05:08:03.502Z,84.54
2023-04-04T05:10:30.703Z,84.86
2023-04-04T05:12:56.772Z,83.89
2023-04-04T05:15:24.989Z,82.78
2023-04-04T05:17:51.013Z,82.80
2023-04-04T05:20:16.988Z,83.57
2023-04-04T05:22:46.398Z,82.88
2023-04-04T05:25:12.946Z,83.57
2023-04-04T05:27:39.950Z,83.55
2023-04-04T05:30:07.076Z,83.61
2023-04-04T05:32:33.400Z,83.46
2023-04-04T05:35:00.210Z,84.27
2023-04-04T05:37:26.996Z,84.83
2023-04-04T05:39:53.318Z,83.28
2023-04-04T05:42:19.083Z,82.22
2023-04-04T05:44:49.831Z,81.13
2023-04-04T05:47:15.769Z,80.09
2023-04-04T05:49:41.568Z,79.94
2023-04-04T05:52:07.723Z,80.26
2023-04-04T05:54:33.494Z,79.58
2023-04-04T05:56:59.281Z,79.11
2023-04-04T05:59:25.166Z,79.07
2023-04-04T06:01:51.299Z,78.91
2023-04-04T06:04:17.073Z,78.55
2023-04-04T06:06:43.000Z,78.74
2023-04-04T06:09:08.950Z,77.18
2023-04-04T06:11:35.004Z,76.62
2023-04-04T06:14:01.078Z,77.11
2023-04-04T06:16:26.906Z,77.07
2023-04-04T06:18:52.838Z,77.20
2023-04-04T06:21:18.654Z,76.17
2023-04-04T06:23:44.696Z,76.15
2023-04-04T06:26:10.817Z,75.42
2023-04-04T06:28:36.652Z,75.86
2023-04-04T06:31:05.638Z,77.11
2023-04-04T06:33:31.430Z,78.32
2023-04-04T06:35:57.358Z,76.34
2023-04-04T06:38:30.834Z,76.15
2023-04-04T06:40:56.758Z,75.63
2023-04-04T06:43:22.651Z,75.35
2023-04-04T06:45:48.855Z,73.06
2023-04-04T06:48:15.153Z,73.49
2023-04-04T06:50:41.486Z,75.61
2023-04-04T06:53:07.856Z,73.90
2023-04-04T06:55:34.086Z,72.63
2023-04-04T06:58:00.000Z,71.52
2023-04-04T07:00:26.056Z,71.97
2023-04-04T07:03:00.948Z,71.76
2023-04-04T07:05:27.385Z,69.70
2023-04-04T07:07:56.429Z,70.59
2023-04-04T07:10:23.836Z,70.71
2023-04-04T07:12:50.500Z,70.03
2023-04-04T07:15:17.031Z,68.71
2023-04-04T07:17:42.963Z,69.75
2023-04-04T07:20:09.259Z,69.33
2023-04-04T07:22:39.128Z,68.82
2023-04-04T07:25:05.978Z,70.39
2023-04-04T07:27:31.804Z,70.40
2023-04-04T07:29:57.631Z,67.44
2023-04-04T07:32:24.779Z,68.25
2023-04-04T07:34:50.700Z,68.07
2023-04-04T07:37:16.580Z,67.04
2023-04-04T07:39:42.381Z,68.24
2023-04-04T07:42:08.228Z,68.00
2023-04-04T07:44:34.030Z,67.16
2023-04-04T07:47:09.358Z,66.56
2023-04-04T07:49:36.324Z,65.96
2023-04-04T07:52:02.506Z,67.00
2023-04-04T07:54:28.550Z,66.40
2023-04-04T07:56:54.331Z,68.56
2023-04-04T07:59:20.688Z,67.51
2023-04-04T08:01:46.523Z,66.37
2023-04-04T08:04:12.371Z,66.98
2023-04-04T08:06:38.911Z,64.91
2023-04-04T08:09:04.894Z,64.12
2023-04-04T08:11:30.703Z,64.83
2023-04-04T08:13:56.495Z,63.64
2023-04-04T08:16:23.002Z,62.02
2023-04-04T08:18:48.878Z,62.53
2023-04-04T08:21:14.723Z,62.92
2023-04-04T08:23:44.687Z,61.23
2023-04-04T08:26:11.249Z,60.65
2023-04-04T08:28:37.963Z,62.61
2023-04-04T08:31:04.338Z,60.79
2023-04-04T08:33:44.328Z,60.69
2023-04-04T08:36:13.177Z,60.97
2023-04-04T08:38:38.926Z,62.05
2023-04-04T08:41:04.757Z,60.05
2023-04-04T08:43:34.018Z,59.58
2023-04-04T08:46:03.421Z,59.94
2023-04-04T08:48:31.380Z,58.21
2023-04-04T08:50:59.977Z,59.51
2023-04-04T08:53:26.302Z,59.46
2023-04-04T08:55:54.393Z,59.38
2023-04-04T08:58:20.560Z,57.98
2023-04-04T09:00:46.615Z,58.11
2023-04-04T09:03:27.684Z,58.33
2023-04-04T09:05:54.811Z,58.47
2023-04-04T09:08:23.014Z,56.85
2023-04-04T09:10:49.756Z,57.81
2023-04-04T09:13:16.908Z,57.12
2023-04-04T09:15:48.594Z,55.96
2023-04-04T09:18:15.113Z,55.87
2023-04-04T09:20:42.806Z,54.72
2023-04-04T09:23:11.781Z,55.12
2023-04-04T09:25:52.840Z,54.99
2023-04-04T09:28:27.335Z,53.82
2023-04-04T09:30:53.444Z,53.33
2023-04-04T09:33:21.161Z,51.07
2023-04-04T09:35:56.812Z,52.51
2023-04-04T09:38:22.947Z,49.68
2023-04-04T09:40:49.320Z,50.67
2023-04-04T09:43:16.370Z,52.49
2023-04-04T09:45:45.789Z,52.86
2023-04-04T09:48:12.045Z,51.42
2023-04-04T09:50:45.693Z,52.20
2023-04-04T09:53:18.286Z,52.99
2023-04-04T09:55:53.442Z,53.17
2023-04-04T09:58:25.745Z,52.73
2023-04-04T10:01:00.168Z,52.41
2023-04-04T10:03:27.105Z,51.50
2023-04-04T10:06:07.177Z,50.78
2023-04-04T10:08:36.668Z,50.56
2023-04-04T10:11:10.648Z,50.53
2023-04-04T10:13:40.405Z,49.38
2023-04-04T10:16:06.689Z,45.74
2023-04-04T10:18:33.972Z,45.32
2023-04-04T10:21:14.496Z,43.09
2023-04-04T10:23:44.725Z,42.30
2023-04-04T10:26:12.016Z,41.67
2023-04-04T10:28:38.115Z,42.34
2023-04-04T10:31:19.322Z,39.89
2023-04-04T10:34:16.776Z,39.23
2023-04-04T10:36:49.591Z,36.62
2023-04-04T10:39:23.055Z,36.46
2023-04-04T10:41:51.425Z,35.58
2023-04-04T10:44:32.794Z,35.94
2023-04-04T10:47:08.027Z,34.75
2023-04-04T10:49:35.538Z,34.32
2023-04-04T10:52:02.567Z,33.43
2023-04-04T10:54:29.594Z,33.36
2023-04-04T10:57:00.609Z,31.92
2023-04-04T10:59:27.470Z,30.83
2023-04-04T11:01:57.730Z,30.73
2023-04-04T11:04:32.684Z,31.84
2023-04-04T11:07:18.801Z,30.34
2023-04-04T11:09:50.609Z,29.05
2023-04-04T11:12:22.563Z,30.19
2023-04-04T11:15:11.874Z,30.48
2023-04-04T11:17:56.812Z,29.70
2023-04-04T11:20:31.709Z,31.53
2023-04-04T11:23:50.345Z,30.90
2023-04-04T11:26:19.212Z,31.01
2023-04-04T11:28:45.926Z,29.87
2023-04-04T11:31:20.628Z,29.12
2023-04-04T11:34:02.288Z,30.19
2023-04-04T11:36:37.425Z,28.61
2023-04-04T11:39:04.729Z,30.27
2023-04-04T11:42:11.390Z,30.44
2023-04-04T11:44:41.152Z,30.89
2023-04-04T11:47:08.459Z,28.53
2023-04-04T11:49:36.240Z,30.18
2023-04-04T11:52:10.079Z,30.71
2023-04-04T11:54:40.897Z,30.02
2023-04-04T11:57:08.049Z,29.92
2023-04-04T11:59:39.987Z,28.82
2023-04-04T12:02:06.659Z,28.25
2023-04-04T12:04:34.722Z,29.88
2023-04-04T12:07:01.643Z,28.09
2023-04-04T12:09:27.685Z,28.10
2023-04-04T12:11:54.532Z,28.04
2023-04-04T12:14:22.336Z,27.89
2023-04-04T12:16:49.476Z,27.25
2023-04-04T12:19:16.369Z,27.66
2023-04-04T12:21:42.249Z,29.07
2023-04-04T12:24:08.722Z,30.09
2023-04-04T12:26:40.753Z,27.99
2023-04-04T12:29:08.773Z,28.66
2023-04-04T12:31:36.783Z,28.48
2023-04-04T12:34:02.976Z,27.92
2023-04-04T12:36:29.207Z,28.16
2023-04-04T12:39:16.054Z,28.67
2023-04-04T12:41:52.944Z,29.38
2023-04-04T12:44:45.229Z,30.49
2023-04-04T12:47:15.381Z,29.95
2023-04-04T12:49:43.490Z,29.90
2023-04-04T12:52:26.125Z,30.24
2023-04-04T12:55:06.623Z,29.54
2023-04-04T12:57:35.275Z,27.57
2023-04-04T13:00:03.863Z,28.12
2023-04-04T13:02:29.981Z,27.32
2023-04-04T13:04:59.570Z,27.81
2023-04-04T13:07:32.148Z,27.96
2023-04-04T13:10:10.545Z,27.11
2023-04-04T13:13:00.620Z,28.35
2023-04-04T13:15:49.792Z,30.59
2023-04-04T13:18:21.410Z,29.16
2023-04-04T13:20:47.864Z,29.60
2023-04-04T13:23:14.719Z,28.38
2023-04-04T13:25:41.114Z,28.18
2023-04-04T13:28:07.250Z,27.65
2023-04-04T13:30:33.542Z,28.40
2023-04-04T13:32:59.906Z,28.50
2023-04-04T13:35:26.378Z,28.30
2023-04-04T13:37:52.545Z,28.71
2023-04-04T13:40:19.118Z,28.68
2023-04-04T13:42:45.136Z,29.24
2023-04-04T13:45:12.669Z,28.37
2023-04-04T13:47:38.501Z,29.24
2023-04-04T13:50:05.728Z,28.89
2023-04-04T13:52:31.646Z,28.98
2023-04-04T13:54:57.559Z,29.09
2023-04-04T13:57:23.427Z,27.91
2023-04-04T13:59:50.010Z,29.39
2023-04-04T14:02:15.870Z,30.79
2023-04-04T14:04:41.736Z,29.78
2023-04-04T14:07:07.588Z,30.21
2023-04-04T14:09:33.425Z,28.11
2023-04-04T14:12:00.934Z,29.76
2023-04-04T14:14:26.922Z,30.47
2023-04-04T14:16:53.070Z,29.46
2023-04-04T14:19:18.908Z,29.79
2023-04-04T14:21:45.040Z,28.93
2023-04-04T14:24:11.095Z,29.55
2023-04-04T14:26:37.060Z,30.97
2023-04-04T14:29:02.890Z,29.42
2023-04-04T14:31:31.757Z,28.61
2023-04-04T14:33:57.599Z,30.00
2023-04-04T14:36:23.872Z,29.29
2023-04-04T14:38:50.138Z,30.72
2023-04-04T14:41:16.348Z,30.84
2023-04-04T14:43:42.895Z,31.78
2023-04-04T14:46:08.877Z,31.77
2023-04-04T14:48:34.791Z,31.82
2023-04-04T14:51:00.555Z,32.02
2023-04-04T14:53:26.889Z,30.53
2023-04-04T14:55:52.828Z,29.81
2023-04-04T14:58:18.630Z,29.80
2023-04-04T15:00:45.377Z,30.67
2023-04-04T15:03:11.768Z,31.83
2023-04-04T15:05:37.964Z,30.63
2023-04-04T15:08:03.981Z,31.08
2023-04-04T15:10:30.191Z,31.12
2023-04-04T15:12:56.110Z,30.89
2023-04-04T15:15:23.524Z,32.15
2023-04-04T15:17:50.561Z,31.94
2023-04-04T15:20:16.759Z,32.27
2023-04-04T15:22:43.022Z,31.84
2023-04-04T15:25:09.297Z,30.95
2023-04-04T15:27:35.400Z,31.60
2023-04-04T15:30:01.567Z,32.49
2023-04-04T15:32:27.538Z,31.98
2023-04-04T15:34:54.867Z,31.78
2023-04-04T15:37:20.808Z,31.14
2023-04-04T15:39:53.366Z,32.39
2023-04-04T15:42:20.090Z,33.63
2023-04-04T15:44:45.986Z,32.84
2023-04-04T15:47:12.009Z,32.29
2023-04-04T15:49:37.984Z,31.78
2023-04-04T15:52:04.036Z,33.74
2023-04-04T15:54:30.513Z,32.94
2023-04-04T15:56:56.400Z,32.27
2023-04-04T15:59:22.906Z,32.79
2023-04-04T16:01:49.039Z,32.49
2023-04-04T16:04:15.377Z,32.86
2023-04-04T16:06:41.237Z,32.88
2023-04-04T16:09:07.127Z,34.09
2023-04-04T16:11:32.982Z,35.37
2023-04-04T16:14:00.194Z,34.73
2023-04-04T16:16:27.749Z,34.07
2023-04-04T16:18:53.666Z,33.90
2023-04-04T16:21:19.640Z,35.00
2023-04-04T16:23:45.725Z,35.80
2023-04-04T16:26:11.854Z,35.30
2023-04-04T16:28:37.989Z,35.43
2023-04-04T16:31:04.056Z,35.63
2023-04-04T16:33:29.982Z,36.65
2023-04-04T16:35:55.845Z,36.84
2023-04-04T16:38:21.745Z,36.79
2023-04-04T16:40:47.793Z,38.08
2023-04-04T16:43:13.700Z,37.80
2023-04-04T16:45:39.661Z,38.09
2023-04-04T16:48:05.763Z,38.79
2023-04-04T16:50:32.109Z,38.64
2023-04-04T16:52:58.754Z,38.79
2023-04-04T16:55:26.862Z,38.04
2023-04-04T16:57:53.704Z,39.10
2023-04-04T17:00:20.584Z,39.14
2023-04-04T17:02:46.534Z,39.94
2023-04-04T17:05:13.693Z,39.22
2023-04-04T17:07:40.485Z,40.80
2023-04-04T17:10:10.903Z,40.54
2023-04-04T17:12:38.427Z,41.18
2023-04-04T17:15:05.832Z,40.94
2023-04-04T17:17:31.766Z,41.95
2023-04-04T17:19:57.742Z,42.74
2023-04-04T17:22:23.915Z,42.33
2023-04-04T17:24:50.141Z,42.88
2023-04-04T17:27:16.051Z,42.34
2023-04-04T17:29:41.952Z,43.01
2023-04-04T17:32:08.383Z,42.96
2023-04-04T17:34:34.286Z,44.52
2023-04-04T17:37:00.471Z,44.69
2023-04-04T17:39:26.624Z,44.91
2023-04-04T17:41:52.997Z,45.48
2023-04-04T17:44:20.072Z,45.53
2023-04-04T17:46:46.393Z,46.33
2023-04-04T17:49:18.603Z,46.38
2023-04-04T17:51:47.312Z,46.96
2023-04-04T17:54:13.508Z,47.32
2023-04-04T17:56:39.749Z,46.92
2023-04-04T17:59:05.638Z,47.98
2023-04-04T18:01:32.040Z,48.50
2023-04-04T18:03:58.127Z,48.13
2023-04-04T18:06:24.197Z,47.76
2023-04-04T18:08:50.629Z,48.43
2023-04-04T18:11:16.532Z,47.73
2023-04-04T18:13:43.492Z,47.58
2023-04-04T18:16:09.342Z,49.13
2023-04-04T18:18:35.249Z,49.16
2023-04-04T18:21:01.249Z,48.88
2023-04-04T18:23:27.428Z,49.19
2023-04-04T18:25:53.313Z,48.35
2023-04-04T18:28:19.142Z,48.60
2023-04-04T18:30:45.098Z,48.87
2023-04-04T18:33:11.343Z,48.90
2023-04-04T18:35:38.960Z,49.15
2023-04-04T18:38:05.404Z,49.72
2023-04-04T18:40:31.250Z,49.20
2023-04-04T18:42:57.189Z,49.09
2023-04-04T18:45:33.303Z,48.95
2023-04-04T18:47:59.860Z,49.00
2023-04-04T18:50:26.536Z,49.28
2023-04-04T18:52:52.452Z,49.96
2023-04-04T18:55:18.275Z,49.54
2023-04-04T18:57:47.681Z,49.99
2023-04-04T19:00:14.662Z,50.22
2023-04-04T19:02:40.861Z,49.95
2023-04-04T19:05:10.686Z,50.18
2023-04-04T19:07:38.424Z,49.70
2023-04-04T19:10:06.200Z,50.11
2023-04-04T19:12:32.867Z,50.82
2023-04-04T19:15:00.571Z,51.37
2023-04-04T19:17:27.141Z,51.27
2023-04-04T19:19:53.105Z,51.08
2023-04-04T19:22:19.075Z,51.74
2023-04-04T19:24:44.955Z,52.46
2023-04-04T19:27:11.285Z,52.57
2023-04-04T19:29:37.372Z,52.18
2023-04-04T19:32:16.420Z,52.36
2023-04-04T19:34:43.240Z,52.78
2023-04-04T19:37:10.909Z,53.06
2023-04-04T19:39:38.458Z,53.61
2023-04-04T19:42:08.350Z,53.43
2023-04-04T19:44:37.291Z,54.17
2023-04-04T19:47:03.559Z,54.41
2023-04-04T19:49:34.619Z,55.08
2023-04-04T19:52:03.696Z,55.68
2023-04-04T19:54:33.885Z,55.44
2023-04-04T19:57:06.149Z,55.30
2023-04-04T19:59:47.241Z,54.54
2023-04-04T20:02:34.386Z,54.54
2023-04-04T20:05:00.811Z,54.90
2023-04-04T20:07:30.105Z,55.51
2023-04-04T20:09:56.039Z,54.51
2023-04-04T20:12:23.454Z,55.16
2023-04-04T20:14:50.210Z,54.34
2023-04-04T20:17:17.727Z,55.71
2023-04-04T20:19:43.689Z,56.42
2023-04-04T20:22:09.914Z,56.45
2023-04-04T20:24:35.987Z,55.54
2023-04-04T20:27:03.146Z,55.93
2023-04-04T20:29:33.984Z,56.03
2023-04-04T20:32:02.089Z,56.40
2023-04-04T20:34:44.475Z,55.80
2023-04-04T20:37:21.506Z,55.92
2023-04-04T20:39:47.354Z,56.30
2023-04-04T20:42:30.680Z,56.73
2023-04-04T20:45:25.919Z,56.24
2023-04-04T20:47:59.990Z,56.50
2023-04-04T20:50:26.417Z,56.34
2023-04-04T20:52:56.594Z,56.36
2023-04-04T20:55:24.814Z,56.60
2023-04-04T20:57:52.237Z,56.12
2023-04-04T21:00:33.289Z,55.59
2023-04-04T21:03:00.911Z,56.06
2023-04-04T21:05:32.658Z,56.38
2023-04-04T21:08:00.261Z,56.45
2023-04-04T21:10:28.845Z,56.49
2023-04-04T21:13:00.260Z,56.27
2023-04-04T21:15:32.781Z,56.48
2023-04-04T21:18:01.675Z,56.92
2023-04-04T21:20:46.080Z,57.68
2023-04-04T21:23:24.225Z,58.66
2023-04-04T21:25:51.200Z,58.59
2023-04-04T21:28:17.043Z,57.56
2023-04-04T21:30:45.319Z,57.59
2023-04-04T21:33:18.342Z,58.36
2023-04-04T21:35:49.977Z,58.55
2023-04-04T21:38:42.119Z,59.17
2023-04-04T21:41:23.143Z,59.87
2023-04-04T21:43:50.244Z,59.74
2023-04-04T21:46:16.521Z,60.05
2023-04-04T21:48:42.432Z,59.57
2023-04-04T21:51:08.303Z,59.54
2023-04-04T21:53:34.179Z,59.16
2023-04-04T21:56:00.052Z,59.58
2023-04-04T21:58:25.923Z,59.82
2023-04-04T22:00:51.796Z,59.92
2023-04-04T22:03:17.691Z,60.01
2023-04-04T22:05:43.617Z,59.30
2023-04-04T22:08:09.664Z,59.55
2023-04-04T22:10:44.534Z,59.54
2023-04-04T22:13:17.926Z,59.28
2023-04-04T22:15:46.115Z,59.55
2023-04-04T22:18:17.892Z,59.25
2023-04-04T22:20:45.565Z,59.69
2023-04-04T22:23:14.659Z,59.95
2023-04-04T22:25:41.422Z,60.21
2023-04-04T22:28:08.162Z,60.65
2023-04-04T22:30:35.621Z,59.88
2023-04-04T22:33:04.505Z,60.65
2023-04-04T22:35:34.655Z,60.40
2023-04-04T22:38:02.366Z,59.34
2023-04-04T22:40:29.430Z,60.62
2023-04-04T22:42:55.620Z,60.69
2023-04-04T22:45:22.237Z,60.44
2023-04-04T22:47:48.468Z,60.58
2023-04-04T22:50:24.484Z,60.12
2023-04-04T22:52:51.736Z,60.89
2023-04-04T22:55:20.557Z,61.16
2023-04-04T22:57:46.440Z,60.54
2023-04-04T23:00:13.857Z,60.25
2023-04-04T23:02:45.347Z,61.25
2023-04-04T23:05:16.276Z,61.75
2023-04-04T23:07:43.585Z,61.75
2023-04-04T23:10:11.716Z,60.46
2023-04-04T23:12:38.395Z,60.46
2023-04-04T23:15:06.115Z,60.49
2023-04-04T23:17:33.125Z,59.41
2023-04-04T23:19:59.569Z,61.77
2023-04-04T23:22:25.691Z,60.28
2023-04-04T23:24:51.687Z,59.59
2023-04-04T23:27:18.625Z,60.08
2023-04-04T23:29:44.621Z,60.16
2023-04-04T23:32:10.626Z,61.18
2023-04-04T23:34:36.698Z,60.83
2023-04-04T23:37:03.471Z,61.11
2023-04-04T23:39:29.287Z,61.26
2023-04-04T23:41:55.593Z,60.54
2023-04-04T23:44:22.362Z,60.93
2023-04-04T23:46:49.197Z,60.59
2023-04-04T23:49:16.194Z,60.41
2023-04-04T23:51:44.127Z,60.89
2023-04-04T23:54:11.565Z,61.77
2023-04-04T23:56:37.649Z,60.10
2023-04-04T23:59:04.223Z,60.51
